メインページ
METAR-TAF:

METAR-TAF

空港 :

チェンナイ, インド

チェンナイ国際空港

緯度: 13-00N, 経度: 080-11E, 海抜: 10m

現時点の気象観測

当レポートは32分前の20:30(UTC)に作成
南/南東の風 4kt
気温 28°C
湿度 79%
気圧 1011 hPa
視程: 6000m

METAR: VOMM 292030Z 15004KT 6000 NSC 28/24 Q1011 NOSIG

時間: 02:32 (21:02 UTC)

予報

当レポートは4時間2分前の17:00(UTC)に作成
予報は29日の 18時(UTC)から 30日の 24時(UTC)まで有効
の風 5kt
視程: 6000m
高度2000ftの雲はほとんどない
30日の 00時(UTC)から 30日の 03時(UTC)まで一時的に
視程: 4000m
30日の 06時(UTC)から 30日の 07時(UTC)まで徐々に
東/南東の風 10kt
30日の 18時(UTC)から 30日の 19時(UTC)まで徐々に
の風 5kt

TAF: VOMM 291700Z 2918/3024 18005KT 6000 FEW020 TEMPO 3000/3003 4000 BR BECMG 3006/3007 12010KT BECMG 3018/3019 18005KT

4,000以上の空港の気象観測と天気予報(METAR報とTAF報)

利用可能な観測所は地図上に黄色い丸と赤い丸で示す。

丸の上にカーソルを重ねると観測所名を参照できる。

次にクリックすると気象観測と天気予報を参照できる。

マップの切り替え:黒色「×」印の緑ボタンをクリックして拡大、「-」印の緑ボタンをクリックして縮小、緑色の三角印をクリックして隣りの地図に切り替え


METAR-TAF: